Time;durP1;ratioP1;P1;durP2;ratioP2;P2;SDS_P1;SDS_P2;PMS_P1;PMS_P2;Temp;Humidity;BMP_temperature;BMP_pressure;BME280_temperature;BME280_humidity;BME280_pressure;Samples;Min_cycle;Max_cycle;Signal;HPM_P1;HPM_P2
2023/01/01 00:01:26;;;;;;;1999.90;999.90;;;13.80;99.90;;;;;;6377286;22;20038;-79
2023/01/01 00:03:54;;;;;;;1999.90;999.90;;;13.80;99.90;;;;;;6379050;22;20014;-81
2023/01/01 00:06:20;;;;;;;1999.90;999.90;;;13.80;99.90;;;;;;6379337;22;20085;-81
2023/01/01 00:08:46;;;;;;;1999.90;999.90;;;13.80;99.90;;;;;;6351524;22;20144;-81
2023/01/01 00:11:12;;;;;;;1999.90;999.90;;;13.60;99.90;;;;;;6351266;22;20022;-82
2023/01/01 00:13:39;;;;;;;1999.90;999.90;;;13.50;99.90;;;;;;6384352;22;20371;-81
2023/01/01 00:16:10;;;;;;;1999.90;999.90;;;13.60;99.90;;;;;;6357274;22;20080;-81
2023/01/01 00:18:36;;;;;;;1999.90;999.90;;;13.40;99.90;;;;;;6383886;22;20327;-80
2023/01/01 00:21:07;;;;;;;1999.90;999.90;;;13.30;99.90;;;;;;6383595;22;20003;-79
2023/01/01 00:23:34;;;;;;;1999.90;999.90;;;13.40;99.90;;;;;;6388752;22;20003;-81
2023/01/01 00:26:00;;;;;;;1999.90;999.90;;;13.30;99.90;;;;;;6385853;22;20343;-80
2023/01/01 00:28:25;;;;;;;1999.90;999.90;;;13.20;99.90;;;;;;6383633;22;20017;-81
2023/01/01 01:53:50;;;;;;;1999.90;999.90;;;13.00;99.90;;;;;;6369628;22;20076;-77
2023/01/01 01:56:23;;;;;;;1999.90;999.90;;;12.80;99.90;;;;;;6386270;22;20011;-77
2023/01/01 01:58:49;;;;;;;1999.90;999.90;;;12.70;99.90;;;;;;6392146;22;20816;-77
2023/01/01 02:01:14;;;;;;;1999.90;999.90;;;12.60;99.90;;;;;;6362570;22;20050;-77
2023/01/01 02:03:59;;;;;;;1999.90;999.90;;;12.70;99.90;;;;;;6391409;22;20007;-78
2023/01/01 02:06:31;;;;;;;1999.90;999.90;;;12.50;99.90;;;;;;6354743;22;20056;-77
2023/01/01 02:08:59;;;;;;;1999.90;999.90;;;12.50;99.90;;;;;;6353867;22;20003;-76
2023/01/01 02:11:24;;;;;;;1999.90;999.90;;;12.30;99.90;;;;;;6379483;22;20005;-77
2023/01/01 02:13:51;;;;;;;1999.90;999.90;;;12.10;99.90;;;;;;6378407;22;20003;-77
2023/01/01 02:16:26;;;;;;;1999.90;999.90;;;12.00;99.90;;;;;;6378266;22;20003;-77
2023/01/01 02:19:09;;;;;;;1999.90;999.90;;;11.90;99.90;;;;;;6378308;22;19999;-85
2023/01/01 02:21:46;;;;;;;1999.90;999.90;;;11.80;99.90;;;;;;6351507;22;20046;-85
2023/01/01 02:24:12;;;;;;;1999.90;999.90;;;11.70;99.90;;;;;;6352316;22;20446;-82
2023/01/01 02:26:57;;;;;;;1999.90;999.90;;;11.60;99.90;;;;;;6353204;22;20013;-81
2023/01/01 02:29:48;;;;;;;1999.90;999.90;;;11.50;99.90;;;;;;6380896;22;20038;-82
2023/01/01 02:32:22;;;;;;;1999.90;999.90;;;11.40;99.90;;;;;;6380554;22;20003;-86
2023/01/01 02:35:33;;;;;;;1999.90;999.90;;;11.40;99.90;;;;;;6380989;22;20010;-82
2023/01/01 02:37:49;;;;;;;1999.90;999.90;;;11.10;99.90;;;;;;6382354;22;19999;-81
2023/01/01 02:40:17;;;;;;;1999.90;999.90;;;11.10;99.90;;;;;;6360677;22;20084;-82
2023/01/01 02:42:43;;;;;;;1999.90;999.90;;;11.10;99.90;;;;;;6363504;22;20061;-81
2023/01/01 02:45:10;;;;;;;1999.90;999.90;;;11.00;99.90;;;;;;6364051;22;20003;-80
2023/01/01 02:47:37;;;;;;;1999.90;999.90;;;10.90;99.90;;;;;;6372310;22;19990;-79
2023/01/01 02:50:12;;;;;;;1999.90;999.90;;;10.90;99.90;;;;;;6406950;22;20022;-81
2023/01/01 02:53:19;;;;;;;1999.90;999.90;;;10.90;99.90;;;;;;6372229;22;20022;-81
2023/01/01 02:56:07;;;;;;;1999.90;999.90;;;10.90;99.90;;;;;;6396293;22;20130;-81
2023/01/01 03:01:45;;;;;;;1999.90;999.90;;;11.10;99.90;;;;;;6395685;22;20010;-80
2023/01/01 03:04:28;;;;;;;1999.90;999.90;;;11.00;99.90;;;;;;6374157;22;19979;-82
2023/01/01 03:07:12;;;;;;;1999.90;999.90;;;11.10;99.90;;;;;;6370231;22;19995;-82
2023/01/01 03:09:58;;;;;;;1999.90;999.90;;;11.10;99.90;;;;;;6359403;22;21106;-83
2023/01/01 03:12:38;;;;;;;1999.90;999.90;;;11.10;99.90;;;;;;6358018;22;20026;-81
2023/01/01 03:15:18;;;;;;;1999.90;999.90;;;11.20;99.90;;;;;;6358623;22;20015;-80
2023/01/01 03:18:07;;;;;;;1999.90;999.90;;;11.10;99.90;;;;;;6366559;22;20010;-79
2023/01/01 03:20:39;;;;;;;1999.90;999.90;;;11.40;99.90;;;;;;6364221;22;20003;-79
2023/01/01 03:23:08;;;;;;;1999.90;999.90;;;11.50;99.90;;;;;;6366837;22;20003;-79
2023/01/01 03:25:44;;;;;;;1999.90;999.90;;;11.70;99.90;;;;;;6367620;22;20458;-79
2023/01/01 03:28:15;;;;;;;1999.90;999.90;;;11.70;99.90;;;;;;6369327;22;20002;-79
2023/01/01 03:30:44;;;;;;;1999.90;999.90;;;12.00;99.90;;;;;;6369454;22;20033;-80
2023/01/01 03:33:21;;;;;;;1999.90;999.90;;;12.00;99.90;;;;;;6368793;22;20021;-82
2023/01/01 03:36:02;;;;;;;1999.90;999.90;;;12.10;99.90;;;;;;6369502;22;20078;-79
2023/01/01 03:38:50;;;;;;;1999.90;999.90;;;12.00;99.90;;;;;;6382343;22;20017;-78
2023/01/01 03:41:34;;;;;;;1999.90;999.90;;;11.90;99.90;;;;;;6302898;22;20033;-77
2023/01/01 03:44:26;;;;;;;1999.90;999.90;;;11.90;99.90;;;;;;6378496;22;20014;-78
2023/01/01 03:46:52;;;;;;;1999.90;999.90;;;11.80;99.90;;;;;;6333837;22;20007;-78
2023/01/01 03:49:19;;;;;;;1999.90;999.90;;;11.80;99.90;;;;;;6359620;22;20093;-79
2023/01/01 03:52:30;;;;;;;1999.90;999.90;;;12.20;99.90;;;;;;6367813;22;19995;-79
2023/01/01 03:55:12;;;;;;;1999.90;999.90;;;12.10;99.90;;;;;;6368453;22;20068;-79
2023/01/01 03:58:01;;;;;;;1999.90;999.90;;;12.30;99.90;;;;;;6379340;22;20128;-79
2023/01/01 04:01:05;;;;;;;1999.90;999.90;;;12.50;99.90;;;;;;6379139;22;20003;-78
2023/01/01 04:03:32;;;;;;;1999.90;999.90;;;12.40;99.90;;;;;;6376822;22;20006;-78
2023/01/01 04:06:00;;;;;;;1999.90;999.90;;;12.60;99.90;;;;;;6379582;22;20013;-78
2023/01/01 04:08:26;;;;;;;1999.90;999.90;;;12.50;99.90;;;;;;6378678;22;20013;-79
2023/01/01 04:10:56;;;;;;;1999.90;999.90;;;12.40;99.90;;;;;;6350322;22;20010;-80
2023/01/01 04:13:21;;;;;;;1999.90;999.90;;;12.40;99.90;;;;;;6350579;22;20002;-79
2023/01/01 04:15:47;;;;;;;1999.90;999.90;;;12.50;99.90;;;;;;6378672;22;20443;-79
2023/01/01 04:18:12;;;;;;;1999.90;999.90;;;12.60;99.90;;;;;;6378398;22;20046;-79
2023/01/01 04:20:38;;;;;;;1999.90;999.90;;;12.60;99.90;;;;;;6378839;22;20018;-79
2023/01/01 04:23:03;;;;;;;1999.90;999.90;;;12.80;99.90;;;;;;6377031;22;20010;-78
2023/01/01 04:25:29;;;;;;;1999.90;999.90;;;13.00;99.90;;;;;;6377833;22;20007;-79
2023/01/01 04:27:57;;;;;;;1999.90;999.90;;;13.00;99.90;;;;;;6376655;22;20082;-79
2023/01/01 04:30:22;;;;;;;1999.90;999.90;;;13.00;99.90;;;;;;6376849;22;20006;-79
2023/01/01 04:32:48;;;;;;;1999.90;999.90;;;13.00;99.90;;;;;;6376752;22;20074;-78
2023/01/01 04:35:14;;;;;;;1999.90;999.90;;;12.90;99.90;;;;;;6376675;22;20156;-78
2023/01/01 04:37:44;;;;;;;1999.90;999.90;;;12.70;99.90;;;;;;6376491;22;20009;-79
2023/01/01 04:40:11;;;;;;;1999.90;999.90;;;13.20;99.90;;;;;;6376777;22;20007;-79
2023/01/01 04:42:37;;;;;;;1999.90;999.90;;;13.10;99.90;;;;;;6376742;22;19999;-78
2023/01/01 04:45:03;;;;;;;1999.90;999.90;;;13.10;99.90;;;;;;6376814;22;20014;-78
2023/01/01 04:47:29;;;;;;;1999.90;999.90;;;13.10;99.90;;;;;;6376285;22;20461;-78
2023/01/01 04:49:55;;;;;;;1999.90;999.90;;;13.20;99.90;;;;;;6376434;22;20025;-79
2023/01/01 04:52:21;;;;;;;1999.90;999.90;;;13.10;99.90;;;;;;6375942;22;20342;-78
2023/01/01 04:54:46;;;;;;;1999.90;999.90;;;13.20;99.90;;;;;;6348473;22;20007;-78
2023/01/01 04:57:12;;;;;;;1999.90;999.90;;;13.20;99.90;;;;;;6376339;22;20011;-78
2023/01/01 04:59:38;;;;;;;1999.90;999.90;;;13.30;99.90;;;;;;6377435;22;20007;-78
2023/01/01 05:02:03;;;;;;;1999.90;999.90;;;13.40;99.90;;;;;;6377857;22;20003;-79
2023/01/01 05:04:29;;;;;;;1999.90;999.90;;;13.40;99.90;;;;;;6349913;22;20030;-78
2023/01/01 05:06:54;;;;;;;1999.90;999.90;;;13.20;99.90;;;;;;6377758;22;20030;-78
2023/01/01 05:09:20;;;;;;;1999.90;999.90;;;13.30;99.90;;;;;;6349624;22;20015;-79
2023/01/01 05:11:46;;;;;;;1999.90;999.90;;;13.30;99.90;;;;;;6378030;22;20327;-78
2023/01/01 05:14:11;;;;;;;1999.90;999.90;;;13.30;99.90;;;;;;6378023;22;20311;-78
2023/01/01 05:16:38;;;;;;;1999.90;999.90;;;13.20;99.90;;;;;;6349704;22;20006;-79
2023/01/01 05:19:05;;;;;;;1999.90;999.90;;;13.20;99.90;;;;;;6377420;22;20011;-79
2023/01/01 05:21:33;;;;;;;1999.90;999.90;;;13.20;99.90;;;;;;6349814;22;20026;-79
2023/01/01 05:24:01;;;;;;;1999.90;999.90;;;13.20;99.90;;;;;;6377743;22;20003;-79
2023/01/01 05:26:30;;;;;;;1999.90;999.90;;;13.30;99.90;;;;;;6378413;22;20042;-80
2023/01/01 05:28:57;;;;;;;1999.90;999.90;;;13.30;99.90;;;;;;6386198;22;19998;-79
2023/01/01 05:31:25;;;;;;;1999.90;999.90;;;13.30;99.90;;;;;;6381490;22;20057;-79
2023/01/01 05:33:52;;;;;;;1999.90;999.90;;;13.30;99.90;;;;;;6349599;22;20006;-78
2023/01/01 05:36:20;;;;;;;1999.90;999.90;;;13.30;99.90;;;;;;6377774;22;20446;-80
2023/01/01 05:38:46;;;;;;;1999.90;999.90;;;13.20;99.90;;;;;;6377461;22;20002;-78
2023/01/01 05:41:14;;;;;;;1999.90;999.90;;;13.20;99.90;;;;;;6349810;22;20430;-78
2023/01/01 05:43:40;;;;;;;1999.90;999.90;;;13.30;99.90;;;;;;6377682;22;19999;-79
2023/01/01 05:46:08;;;;;;;1999.90;999.90;;;13.40;99.90;;;;;;6377678;22;20527;-78
2023/01/01 05:48:37;;;;;;;1999.90;999.90;;;13.30;99.90;;;;;;6349946;22;20006;-83
2023/01/01 05:51:04;;;;;;;1999.90;999.90;;;13.10;99.90;;;;;;6350650;22;20014;-85
2023/01/01 05:53:30;;;;;;;1999.90;999.90;;;13.00;99.90;;;;;;6349648;22;20011;-79
2023/01/01 05:55:56;;;;;;;1999.90;999.90;;;12.90;99.90;;;;;;6377497;22;20438;-79
2023/01/01 05:58:21;;;;;;;1999.90;999.90;;;12.90;99.90;;;;;;6349619;22;20007;-79
2023/01/01 06:00:47;;;;;;;1999.90;999.90;;;12.80;99.90;;;;;;6377916;22;20323;-78
2023/01/01 06:03:12;;;;;;;1999.90;999.90;;;12.90;99.90;;;;;;6349563;22;20081;-78
2023/01/01 06:05:38;;;;;;;1999.90;999.90;;;13.00;99.90;;;;;;6377673;22;20010;-79
2023/01/01 06:08:04;;;;;;;1999.90;999.90;;;13.10;99.90;;;;;;6349452;22;20003;-79
2023/01/01 06:10:29;;;;;;;1999.90;999.90;;;13.10;99.90;;;;;;6377423;22;20006;-79
2023/01/01 06:12:58;;;;;;;1999.90;999.90;;;13.00;99.90;;;;;;6377424;22;20023;-79
2023/01/01 06:15:24;;;;;;;1999.90;999.90;;;12.90;99.90;;;;;;6349333;22;20038;-79
2023/01/01 06:17:49;;;;;;;1999.90;999.90;;;13.00;99.90;;;;;;6377397;22;20394;-78
2023/01/01 06:20:15;;;;;;;1999.90;999.90;;;13.00;99.90;;;;;;6377654;22;20006;-79
2023/01/01 06:22:41;;;;;;;1999.90;999.90;;;13.00;99.90;;;;;;6377354;22;20082;-80
2023/01/01 06:25:07;;;;;;;1999.90;999.90;;;13.20;99.90;;;;;;6349609;22;20698;-78
2023/01/01 06:27:34;;;;;;;1999.90;999.90;;;13.40;99.90;;;;;;6377482;22;20042;-79
2023/01/01 06:29:59;;;;;;;1999.90;999.90;;;13.50;99.90;;;;;;6349488;22;20021;-79
2023/01/01 06:32:25;;;;;;;1999.90;999.90;;;13.40;99.90;;;;;;6349443;22;20006;-79
2023/01/01 06:34:50;;;;;;;1999.90;999.90;;;13.50;99.90;;;;;;6377610;22;20041;-79
2023/01/01 06:37:16;;;;;;;1999.90;999.90;;;13.50;99.90;;;;;;6377192;22;19999;-79
2023/01/01 06:39:41;;;;;;;1999.90;999.90;;;13.50;99.90;;;;;;6377567;22;20010;-78
2023/01/01 06:42:07;;;;;;;1999.90;999.90;;;13.60;99.90;;;;;;6349612;22;20078;-78
2023/01/01 06:44:33;;;;;;;1999.90;999.90;;;13.80;99.90;;;;;;6377557;22;20011;-78
2023/01/01 06:46:58;;;;;;;1999.90;999.90;;;13.60;99.90;;;;;;6377302;22;20010;-78
2023/01/01 06:49:24;;;;;;;1999.90;999.90;;;13.40;99.90;;;;;;6349361;22;20082;-79
2023/01/01 06:51:49;;;;;;;1999.90;999.90;;;13.20;99.90;;;;;;6377223;22;20010;-79
2023/01/01 06:54:15;;;;;;;1999.90;999.90;;;13.40;99.90;;;;;;6377456;22;20015;-78
2023/01/01 06:56:40;;;;;;;1999.90;999.90;;;13.40;99.90;;;;;;6349044;22;20048;-79
2023/01/01 06:59:06;;;;;;;1999.90;999.90;;;13.30;99.90;;;;;;6377604;22;20028;-79
2023/01/01 07:01:34;;;;;;;1999.90;999.90;;;13.50;99.90;;;;;;6377359;22;20381;-80
2023/01/01 07:04:06;;;;;;;1999.90;999.90;;;13.40;99.90;;;;;;6377261;22;20010;-80
2023/01/01 07:06:33;;;;;;;1999.90;999.90;;;13.40;99.90;;;;;;6348855;22;20007;-79
2023/01/01 07:08:58;;;;;;;1999.90;999.90;;;13.40;99.90;;;;;;6377382;22;20006;-79
2023/01/01 07:11:25;;;;;;;1999.90;999.90;;;13.30;99.90;;;;;;6377570;22;20358;-79
2023/01/01 07:13:50;;;;;;;1999.90;999.90;;;13.50;99.90;;;;;;6377228;22;20007;-78
2023/01/01 07:16:16;;;;;;;1999.90;999.90;;;13.40;99.90;;;;;;6377156;22;20011;-79
2023/01/01 07:18:42;;;;;;;1999.90;999.90;;;13.40;99.90;;;;;;6377400;22;20325;-78
2023/01/01 07:21:25;;;;;;;1999.90;999.90;;;13.40;99.90;;;;;;6376925;22;20010;-79
2023/01/01 07:23:51;;;;;;;1999.90;999.90;;;13.20;99.90;;;;;;6349344;22;20023;-79
2023/01/01 07:26:16;;;;;;;1999.90;999.90;;;13.20;99.90;;;;;;6349032;22;20010;-79
2023/01/01 07:28:42;;;;;;;1999.90;999.90;;;13.10;99.90;;;;;;6377515;22;20010;-79
2023/01/01 07:31:09;;;;;;;1999.90;999.90;;;13.00;99.90;;;;;;6378366;22;20018;-78
2023/01/01 07:33:34;;;;;;;1999.90;999.90;;;12.70;99.90;;;;;;6349058;22;20454;-79
2023/01/01 07:36:00;;;;;;;1999.90;999.90;;;12.60;99.90;;;;;;6348915;22;20014;-80
2023/01/01 07:38:25;;;;;;;1999.90;999.90;;;12.60;99.90;;;;;;6348932;22;20003;-79
2023/01/01 07:40:51;;;;;;;1999.90;999.90;;;12.70;99.90;;;;;;6349266;22;20060;-79
2023/01/01 07:43:16;;;;;;;1999.90;999.90;;;12.80;99.90;;;;;;6376924;22;20002;-80
2023/01/01 07:45:42;;;;;;;1999.90;999.90;;;12.80;99.90;;;;;;6377250;22;20734;-79
2023/01/01 07:48:13;;;;;;;1999.90;999.90;;;12.80;99.90;;;;;;6348954;22;20002;-79
2023/01/01 07:50:39;;;;;;;1999.90;999.90;;;12.70;99.90;;;;;;6377300;22;20840;-79
2023/01/01 07:53:05;;;;;;;1999.90;999.90;;;12.70;99.90;;;;;;6348765;22;20019;-79
2023/01/01 07:55:32;;;;;;;1999.90;999.90;;;12.70;99.90;;;;;;6349131;22;20036;-78
2023/01/01 07:57:58;;;;;;;1999.90;999.90;;;12.80;99.90;;;;;;6377063;22;20003;-79
2023/01/01 08:00:24;;;;;;;1999.90;999.90;;;12.90;99.90;;;;;;6377225;22;20320;-80
2023/01/01 08:02:49;;;;;;;1999.90;999.90;;;12.90;99.90;;;;;;6376952;22;20003;-79
2023/01/01 08:05:15;;;;;;;1999.90;999.90;;;12.90;99.90;;;;;;6381120;22;20007;-80
2023/01/01 08:07:48;;;;;;;1999.90;999.90;;;13.00;99.90;;;;;;6354344;22;20019;-78
2023/01/01 08:10:15;;;;;;;1999.90;999.90;;;13.00;99.90;;;;;;6377283;22;20011;-78
2023/01/01 08:12:41;;;;;;;1999.90;999.90;;;13.00;99.90;;;;;;6377573;22;20013;-79
2023/01/01 08:15:07;;;;;;;1999.90;999.90;;;13.10;99.90;;;;;;6377436;22;20393;-79
2023/01/01 08:17:33;;;;;;;1999.90;999.90;;;13.00;99.90;;;;;;6348889;22;20405;-80
2023/01/01 08:19:58;;;;;;;1999.90;999.90;;;13.10;99.90;;;;;;6378432;22;20003;-81
2023/01/01 08:22:24;;;;;;;1999.90;999.90;;;13.00;99.90;;;;;;6378299;22;20007;-79
2023/01/01 08:24:49;;;;;;;1999.90;999.90;;;13.00;99.90;;;;;;6378074;22;20046;-82
2023/01/01 08:27:15;;;;;;;1999.90;999.90;;;13.00;99.90;;;;;;6378130;22;20331;-80
2023/01/01 08:29:44;;;;;;;1999.90;999.90;;;13.00;99.90;;;;;;6378952;22;20442;-79
2023/01/01 08:32:11;;;;;;;1999.90;999.90;;;13.10;99.90;;;;;;6351104;22;20011;-79
2023/01/01 08:34:36;;;;;;;1999.90;999.90;;;13.20;99.90;;;;;;6352006;22;20402;-79
2023/01/01 08:37:02;;;;;;;1999.90;999.90;;;13.10;99.90;;;;;;6352413;22;20006;-81
2023/01/01 08:39:28;;;;;;;1999.90;999.90;;;13.20;99.90;;;;;;6353370;22;20363;-81
2023/01/01 08:41:54;;;;;;;1999.90;999.90;;;13.20;99.90;;;;;;6381382;22;20026;-80
2023/01/01 08:44:20;;;;;;;1999.90;999.90;;;13.10;99.90;;;;;;6352104;22;20093;-80
2023/01/01 08:46:45;;;;;;;1999.90;999.90;;;13.30;99.90;;;;;;6350988;22;20007;-80
2023/01/01 08:49:11;;;;;;;1999.90;999.90;;;13.40;99.90;;;;;;6379018;22;20007;-80
2023/01/01 08:51:36;;;;;;;1999.90;999.90;;;13.40;99.90;;;;;;6351554;22;20451;-78
2023/01/01 08:54:02;;;;;;;1999.90;999.90;;;13.40;99.90;;;;;;6379414;22;20083;-81
2023/01/01 08:56:28;;;;;;;1999.90;999.90;;;13.40;99.90;;;;;;6351164;22;20029;-80
2023/01/01 08:58:54;;;;;;;1999.90;999.90;;;13.60;99.90;;;;;;6352344;22;20384;-81
2023/01/01 09:01:25;;;;;;;1999.90;999.90;;;13.60;99.90;;;;;;6352350;22;20013;-81
2023/01/01 09:03:50;;;;;;;1999.90;999.90;;;13.60;99.90;;;;;;6351147;22;20759;-79
2023/01/01 09:06:16;;;;;;;1999.90;999.90;;;13.70;99.90;;;;;;6352475;22;20106;-79
2023/01/01 09:08:42;;;;;;;1999.90;999.90;;;13.70;99.90;;;;;;6380416;22;20007;-80
2023/01/01 09:11:16;;;;;;;1999.90;999.90;;;13.80;99.90;;;;;;6380302;22;20022;-80
2023/01/01 09:13:41;;;;;;;1999.90;999.90;;;13.90;99.90;;;;;;6377364;22;20010;-80
2023/01/01 09:16:07;;;;;;;1999.90;999.90;;;13.90;99.90;;;;;;6378623;22;20010;-80
2023/01/01 09:18:32;;;;;;;1999.90;999.90;;;13.90;99.90;;;;;;6350819;22;20361;-80
2023/01/01 09:20:58;;;;;;;1999.90;999.90;;;14.00;99.90;;;;;;6350617;22;20015;-80
2023/01/01 09:23:23;;;;;;;1999.90;999.90;;;14.10;99.90;;;;;;6379938;22;20003;-80
2023/01/01 09:25:49;;;;;;;1999.90;999.90;;;14.20;99.90;;;;;;6351579;22;20082;-81
2023/01/01 09:28:14;;;;;;;1999.90;999.90;;;14.20;99.90;;;;;;6350295;22;20035;-81
2023/01/01 09:30:40;;;;;;;1999.90;999.90;;;14.30;99.90;;;;;;6350505;22;20046;-82
2023/01/01 09:33:06;;;;;;;1999.90;999.90;;;14.30;99.90;;;;;;6350748;22;20003;-81
2023/01/01 09:35:31;;;;;;;1999.90;999.90;;;14.30;99.90;;;;;;6378534;22;20011;-80
2023/01/01 09:37:57;;;;;;;1999.90;999.90;;;14.30;99.90;;;;;;6350349;22;19998;-79
2023/01/01 09:40:26;;;;;;;1999.90;999.90;;;14.40;99.90;;;;;;6379036;22;20010;-80
2023/01/01 09:43:25;;;;;;;1999.90;999.90;;;14.30;99.90;;;;;;6379172;22;20353;-80
2023/01/01 09:46:06;;;;;;;1999.90;999.90;;;14.40;99.90;;;;;;6351794;22;20007;-78
2023/01/01 09:48:35;;;;;;;1999.90;999.90;;;14.50;99.90;;;;;;6380039;22;20074;-79
2023/01/01 09:51:03;;;;;;;1999.90;999.90;;;14.70;99.90;;;;;;6376761;22;20492;-82
2023/01/01 09:53:47;;;;;;;1999.90;999.90;;;14.80;99.90;;;;;;6378514;22;20003;-79
2023/01/01 09:56:19;;;;;;;1999.90;999.90;;;14.80;99.90;;;;;;6377774;22;20064;-81
2023/01/01 09:58:44;;;;;;;1999.90;999.90;;;14.90;99.90;;;;;;6378734;22;20441;-81
2023/01/01 10:01:58;;;;;;;1999.90;999.90;;;14.90;99.90;;;;;;6379252;22;20014;-80
2023/01/01 10:04:42;;;;;;;1999.90;999.90;;;15.00;99.90;;;;;;6265182;22;20002;-80
2023/01/01 10:07:18;;;;;;;1999.90;999.90;;;15.00;99.90;;;;;;6378832;22;20454;-81
2023/01/01 10:10:02;;;;;;;1999.90;999.90;;;15.00;99.90;;;;;;6377868;22;20010;-80
2023/01/01 10:12:52;;;;;;;1999.90;999.90;;;15.10;99.90;;;;;;6352164;22;20365;-81
2023/01/01 10:15:27;;;;;;;1999.90;999.90;;;15.20;99.90;;;;;;6380788;22;20003;-81
2023/01/01 10:17:57;;;;;;;1999.90;999.90;;;15.20;99.90;;;;;;6378205;22;20064;-81
2023/01/01 10:20:45;;;;;;;1999.90;999.90;;;15.20;99.90;;;;;;6351474;22;20007;-80
2023/01/01 10:23:22;;;;;;;1999.90;999.90;;;15.20;99.90;;;;;;6380608;22;20797;-80
2023/01/01 10:25:48;;;;;;;1999.90;999.90;;;15.20;99.90;;;;;;6380557;22;20442;-80
2023/01/01 10:28:24;;;;;;;1999.90;999.90;;;15.20;99.90;;;;;;6379944;22;20003;-80
2023/01/01 10:30:53;;;;;;;1999.90;999.90;;;15.20;99.90;;;;;;6352401;22;20041;-79
2023/01/01 10:33:19;;;;;;;1999.90;999.90;;;15.20;99.90;;;;;;6379172;22;20011;-81
2023/01/01 10:35:49;;;;;;;1999.90;999.90;;;15.30;99.90;;;;;;6351323;22;20388;-80
2023/01/01 10:38:24;;;;;;;1999.90;999.90;;;15.30;99.90;;;;;;6377931;22;20445;-79
2023/01/01 10:40:54;;;;;;;1999.90;999.90;;;15.40;99.90;;;;;;6381240;22;20029;-80
2023/01/01 10:43:20;;;;;;;1999.90;999.90;;;15.50;99.90;;;;;;6352675;22;20006;-80
2023/01/01 10:45:53;;;;;;;1999.90;999.90;;;15.60;99.90;;;;;;6352876;22;20069;-81
2023/01/01 10:48:20;;;;;;;1999.90;999.90;;;15.70;99.90;;;;;;6381959;22;20073;-81
2023/01/01 10:51:15;;;;;;;1999.90;999.90;;;15.70;99.90;;;;;;6354062;22;20470;-80
2023/01/01 10:53:48;;;;;;;1999.90;999.90;;;15.80;99.90;;;;;;6368004;22;19998;-81
2023/01/01 10:56:19;;;;;;;1999.90;999.90;;;15.80;99.90;;;;;;6354204;22;20003;-82
2023/01/01 10:58:57;;;;;;;1999.90;999.90;;;15.90;99.90;;;;;;6354289;22;20002;-81
2023/01/01 11:01:26;;;;;;;1999.90;999.90;;;15.90;99.90;;;;;;6354192;22;20003;-82
2023/01/01 11:04:14;;;;;;;1999.90;999.90;;;16.00;99.90;;;;;;6383890;22;20060;-81
2023/01/01 11:06:45;;;;;;;1999.90;999.90;;;16.00;99.90;;;;;;6383631;22;20074;-82
2023/01/01 11:09:25;;;;;;;1999.90;999.90;;;16.00;99.90;;;;;;6353041;22;20010;-81
2023/01/01 11:12:02;;;;;;;1999.90;999.90;;;16.00;99.90;;;;;;6354651;22;20021;-82
2023/01/01 11:14:32;;;;;;;1999.90;999.90;;;16.00;99.90;;;;;;6356889;22;20010;-81
2023/01/01 11:16:58;;;;;;;1999.90;999.90;;;16.00;99.90;;;;;;6355722;22;20406;-83
2023/01/01 11:19:29;;;;;;;1999.90;999.90;;;16.10;99.90;;;;;;6354434;22;20002;-84
2023/01/01 11:21:55;;;;;;;1999.90;999.90;;;16.00;99.90;;;;;;6381787;22;20070;-85
2023/01/01 11:24:24;;;;;;;1999.90;999.90;;;16.00;99.90;;;;;;6355479;22;20039;-80
2023/01/01 11:26:51;;;;;;;1999.90;999.90;;;16.10;99.90;;;;;;6385107;22;20014;-80
2023/01/01 11:29:26;;;;;;;1999.90;999.90;;;16.20;99.90;;;;;;6387147;22;20050;-85
2023/01/01 11:31:52;;;;;;;1999.90;999.90;;;16.20;99.90;;;;;;6388134;22;20010;-82
2023/01/01 11:34:31;;;;;;;1999.90;999.90;;;16.30;99.90;;;;;;6362877;22;20025;-81
2023/01/01 11:37:25;;;;;;;1999.90;999.90;;;16.40;99.90;;;;;;6350472;22;20042;-84
2023/01/01 11:39:53;;;;;;;1999.90;999.90;;;16.50;99.90;;;;;;6350337;22;20011;-82
2023/01/01 11:42:25;;;;;;;1999.90;999.90;;;16.50;99.90;;;;;;6379364;22;20081;-85
2023/01/01 11:44:58;;;;;;;1999.90;999.90;;;16.60;99.90;;;;;;6351296;22;20011;-84
2023/01/01 11:47:28;;;;;;;1999.90;999.90;;;16.40;99.90;;;;;;6351216;22;20011;-82
2023/01/01 11:50:12;;;;;;;1999.90;999.90;;;16.60;99.90;;;;;;6378455;22;20029;-87
2023/01/01 11:52:40;;;;;;;1999.90;999.90;;;16.90;99.90;;;;;;6379797;22;20115;-84
2023/01/01 11:55:15;;;;;;;1999.90;999.90;;;17.20;99.90;;;;;;6379239;22;20011;-85
2023/01/01 11:58:07;;;;;;;1999.90;999.90;;;17.60;99.90;;;;;;6378276;22;20073;-84
2023/01/01 12:00:35;;;;;;;1999.90;999.90;;;17.90;99.90;;;;;;6351842;22;20081;-84
2023/01/01 12:03:12;;;;;;;1999.90;999.90;;;18.10;99.90;;;;;;6378938;22;20010;-83
2023/01/01 12:05:55;;;;;;;1999.90;999.90;;;18.00;99.90;;;;;;6348565;22;20038;-79
2023/01/01 12:09:04;;;;;;;1999.90;999.90;;;17.90;99.90;;;;;;6349540;22;20045;-83
2023/01/01 12:11:42;;;;;;;1999.90;999.90;;;17.90;99.90;;;;;;6377251;22;20011;-82
2023/01/01 12:14:37;;;;;;;1999.90;999.90;;;17.80;99.90;;;;;;6350189;22;20011;-84
2023/01/01 12:17:15;;;;;;;1999.90;999.90;;;17.90;99.90;;;;;;6377266;22;20041;-81
2023/01/01 12:20:02;;;;;;;1999.90;999.90;;;17.90;99.90;;;;;;6377870;22;20002;-82
2023/01/01 12:22:27;;;;;;;1999.90;999.90;;;17.70;99.90;;;;;;6378362;22;20386;-84
2023/01/01 12:24:55;;;;;;;1999.90;999.90;;;17.80;99.90;;;;;;6378375;22;20014;-81
2023/01/01 12:27:39;;;;;;;1999.90;999.90;;;17.80;99.90;;;;;;6351009;22;20049;-81
2023/01/01 12:30:23;;;;;;;1999.90;999.90;;;17.90;99.90;;;;;;6379401;22;20038;-81
2023/01/01 12:33:07;;;;;;;1999.90;999.90;;;17.80;99.90;;;;;;6352151;22;20007;-81
2023/01/01 12:36:04;;;;;;;1999.90;999.90;;;18.00;99.90;;;;;;6377835;22;20782;-82
2023/01/01 12:38:42;;;;;;;1999.90;999.90;;;18.00;99.90;;;;;;6355118;22;20061;-79
2023/01/01 12:41:34;;;;;;;1999.90;999.90;;;17.90;99.90;;;;;;6356222;22;20011;-80
2023/01/01 12:44:37;;;;;;;1999.90;999.90;;;17.90;99.90;;;;;;6356292;22;20744;-81
2023/01/01 12:47:21;;;;;;;1999.90;999.90;;;17.90;99.90;;;;;;6386074;22;20002;-81
2023/01/01 12:49:53;;;;;;;1999.90;999.90;;;17.90;99.90;;;;;;6385501;22;20011;-80
2023/01/01 12:52:32;;;;;;;1999.90;999.90;;;18.00;99.90;;;;;;6356952;22;20007;-81
2023/01/01 12:55:41;;;;;;;1999.90;999.90;;;17.90;99.90;;;;;;6386513;22;20011;-80
2023/01/01 12:58:25;;;;;;;1999.90;999.90;;;17.90;99.90;;;;;;6385009;22;20068;-80
2023/01/01 13:01:10;;;;;;;1999.90;999.90;;;17.90;99.90;;;;;;6358173;22;19995;-80
2023/01/01 13:03:49;;;;;;;1999.90;999.90;;;18.10;99.90;;;;;;6357654;22;20477;-80
2023/01/01 13:06:18;;;;;;;1999.90;999.90;;;18.20;99.90;;;;;;6356261;22;20706;-81
2023/01/01 13:08:50;;;;;;;1999.90;999.90;;;18.30;99.90;;;;;;6386051;22;20003;-80
2023/01/01 13:11:16;;;;;;;1999.90;999.90;;;18.40;99.90;;;;;;6385364;22;20003;-80
2023/01/01 13:13:42;;;;;;;1999.90;999.90;;;18.40;99.90;;;;;;6357171;22;20003;-80
2023/01/01 13:16:10;;;;;;;1999.90;999.90;;;18.50;99.90;;;;;;6384674;22;20017;-81
2023/01/01 13:18:37;;;;;;;1999.90;999.90;;;18.30;99.90;;;;;;6356185;22;20003;-80
2023/01/01 13:21:06;;;;;;;1999.90;999.90;;;18.30;99.90;;;;;;6357605;22;20041;-80
2023/01/01 13:23:34;;;;;;;1999.90;999.90;;;18.20;99.90;;;;;;6359772;22;20064;-79
2023/01/01 13:26:21;;;;;;;1999.90;999.90;;;18.10;99.90;;;;;;6359766;22;20006;-79
2023/01/01 13:28:56;;;;;;;1999.90;999.90;;;18.20;99.90;;;;;;6386283;22;19998;-82
2023/01/01 13:31:37;;;;;;;1999.90;999.90;;;18.00;99.90;;;;;;6387078;22;20017;-79
2023/01/01 13:34:36;;;;;;;1999.90;999.90;;;17.90;99.90;;;;;;6359130;22;20007;-79
2023/01/01 13:37:13;;;;;;;1999.90;999.90;;;17.90;99.90;;;;;;6359636;22;20084;-80
2023/01/01 13:40:11;;;;;;;1999.90;999.90;;;17.90;99.90;;;;;;6355185;22;20060;-81
2023/01/01 13:42:39;;;;;;;1999.90;999.90;;;17.80;99.90;;;;;;6300161;22;20015;-80
2023/01/01 13:45:19;;;;;;;1999.90;999.90;;;17.70;99.90;;;;;;6381934;22;20698;-80
2023/01/01 13:47:48;;;;;;;1999.90;999.90;;;17.60;99.90;;;;;;6352159;22;20007;-81